createdAt,value
2019-05-23T00:02:12.096Z,101555.84
2019-05-23T00:05:01.567Z,101554.59
2019-05-23T00:07:50.788Z,101548.98
2019-05-23T00:10:40.683Z,101546.88
2019-05-23T00:13:51.276Z,101544.69
2019-05-23T00:16:23.369Z,101546.88
2019-05-23T00:18:53.693Z,101543.02
2019-05-23T00:21:25.111Z,101548.28
2019-05-23T00:23:59.075Z,101552.34
2019-05-23T00:26:30.083Z,101553.38
2019-05-23T00:29:09.983Z,101552.67
2019-05-23T00:31:38.357Z,101545.86
2019-05-23T00:34:10.325Z,101553.77
2019-05-23T00:36:42.935Z,101543.89
2019-05-23T00:39:15.577Z,101551.34
2019-05-23T00:41:46.907Z,101552.73
2019-05-23T00:44:23.514Z,101551.05
2019-05-23T00:46:54.653Z,101557.16
2019-05-23T00:49:27.319Z,101551.13
2019-05-23T00:51:57.402Z,101551.55
2019-05-23T00:54:28.256Z,101554.61
2019-05-23T00:57:02.366Z,101544.63
2019-05-23T00:59:35.644Z,101548.55
2019-05-23T01:02:12.381Z,101552.42
2019-05-23T01:04:46.119Z,101554.19
2019-05-23T01:07:17.252Z,101556.31
2019-05-23T01:09:48.083Z,101552.34
2019-05-23T01:12:18.246Z,101551.39
2019-05-23T01:14:48.414Z,101559.58
2019-05-23T01:17:20.740Z,101555.30
2019-05-23T01:19:52.837Z,101557.97
2019-05-23T01:22:23.876Z,101550.70
2019-05-23T01:24:55.574Z,101546.39
2019-05-23T01:27:25.824Z,101555.54
2019-05-23T01:29:58.298Z,101543.45
2019-05-23T01:32:31.476Z,101546.91
2019-05-23T01:35:02.069Z,101547.73
2019-05-23T01:37:32.454Z,101540.80
2019-05-23T01:40:07.761Z,101547.32
2019-05-23T01:42:44.536Z,101543.45
2019-05-23T01:45:17.696Z,101546.91
2019-05-23T01:47:49.307Z,101546.05
2019-05-23T01:50:23.494Z,101549.96
2019-05-23T01:52:54.198Z,101545.61
2019-05-23T01:55:24.544Z,101546.85
2019-05-23T01:57:55.835Z,101551.16
2019-05-23T02:00:30.756Z,101555.08
2019-05-23T02:03:01.104Z,101561.20
2019-05-23T02:05:33.171Z,101563.00
2019-05-23T02:08:04.092Z,101563.95
2019-05-23T02:10:34.394Z,101563.60
2019-05-23T02:13:04.840Z,101557.98
2019-05-23T02:15:34.921Z,101561.50
2019-05-23T02:18:06.282Z,101565.89
2019-05-23T02:20:37.134Z,101565.45
2019-05-23T02:23:07.875Z,101566.75
2019-05-23T02:25:39.692Z,101565.44
2019-05-23T02:28:10.143Z,101568.48
2019-05-23T02:30:40.801Z,101567.97
2019-05-23T02:33:12.519Z,101559.68
2019-05-23T02:35:47.702Z,101557.95
2019-05-23T02:38:27.158Z,101558.78
2019-05-23T02:41:01.815Z,101556.16
2019-05-23T02:43:35.380Z,101562.21
2019-05-23T02:46:09.564Z,101554.81
2019-05-23T02:48:43.611Z,101556.16
2019-05-23T02:51:28.394Z,101555.30
2019-05-23T02:54:01.898Z,101554.88
2019-05-23T02:56:38.737Z,101557.50
2019-05-23T02:59:39.278Z,101551.02
2019-05-23T03:02:37.950Z,101550.20
2019-05-23T03:05:14.363Z,101551.92
2019-05-23T03:07:45.334Z,101551.48
2019-05-23T03:10:18.656Z,101544.12
2019-05-23T03:12:49.574Z,101538.09
2019-05-23T03:15:25.043Z,101536.36
2019-05-23T03:18:00.543Z,101540.30
2019-05-23T03:20:30.879Z,101535.11
2019-05-23T03:23:04.190Z,101533.81
2019-05-23T03:25:38.271Z,101534.26
2019-05-23T03:28:14.059Z,101531.21
2019-05-23T03:31:26.551Z,101527.30
2019-05-23T03:33:39.296Z,101520.36
2019-05-23T03:36:10.145Z,101520.83
2019-05-23T03:38:41.130Z,101522.16
2019-05-23T03:41:15.873Z,101519.98
2019-05-23T03:43:48.697Z,101521.28
2019-05-23T03:46:23.827Z,101522.16
2019-05-23T03:48:54.474Z,101514.78
2019-05-23T03:51:25.306Z,101515.66
2019-05-23T03:53:56.967Z,101518.25
2019-05-23T03:56:28.572Z,101521.72
2019-05-23T03:59:00.622Z,101520.81
2019-05-23T04:01:47.209Z,101520.80
2019-05-23T04:04:07.459Z,101523.37
2019-05-23T04:06:38.192Z,101524.63
2019-05-23T04:09:09.956Z,101528.02
2019-05-23T04:11:40.143Z,101525.79
2019-05-23T04:14:13.603Z,101528.37
2019-05-23T04:16:43.681Z,101522.28
2019-05-23T04:19:13.673Z,101520.53
2019-05-23T04:21:48.362Z,101521.37
2019-05-23T04:24:21.183Z,101517.84
2019-05-23T04:26:58.834Z,101523.86
2019-05-23T04:29:29.301Z,101523.80
2019-05-23T04:32:07.776Z,101526.77
2019-05-23T04:34:33.991Z,101521.93
2019-05-23T04:37:04.218Z,101519.66
2019-05-23T04:39:34.698Z,101522.59
2019-05-23T04:42:05.498Z,101520.88
2019-05-23T04:44:43.818Z,101522.11
2019-05-23T04:47:10.241Z,101530.27
2019-05-23T04:49:40.617Z,101534.13
2019-05-23T04:52:11.433Z,101528.39
2019-05-23T04:54:42.185Z,101534.39
2019-05-23T04:57:14.541Z,101535.17
2019-05-23T04:59:44.792Z,101542.02
2019-05-23T05:02:25.727Z,101542.78
2019-05-23T05:04:48.590Z,101538.37
2019-05-23T05:07:19.042Z,101537.36
2019-05-23T05:09:50.951Z,101545.58
2019-05-23T05:12:21.161Z,101546.31
2019-05-23T05:14:52.016Z,101544.00
2019-05-23T05:17:22.353Z,101547.28
2019-05-23T05:19:52.709Z,101551.49
2019-05-23T05:22:22.963Z,101551.22
2019-05-23T05:24:56.266Z,101552.20
2019-05-23T05:27:26.564Z,101558.06
2019-05-23T05:29:56.767Z,101559.02
2019-05-23T05:32:43.314Z,101551.28
2019-05-23T05:34:59.612Z,101557.90
2019-05-23T05:37:33.105Z,101556.25
2019-05-23T05:40:04.620Z,101554.27
2019-05-23T05:42:38.110Z,101555.00
2019-05-23T05:45:10.435Z,101561.94
2019-05-23T05:47:41.024Z,101568.87
2019-05-23T05:50:12.978Z,101567.17
2019-05-23T05:52:43.410Z,101567.24
2019-05-23T05:55:13.837Z,101568.52
2019-05-23T05:57:44.198Z,101573.60
2019-05-23T06:00:21.346Z,101576.44
2019-05-23T06:03:03.613Z,101575.34
2019-05-23T06:05:34.311Z,101576.43
2019-05-23T06:08:06.385Z,101580.56
2019-05-23T06:10:36.697Z,101582.98
2019-05-23T06:13:06.711Z,101578.87
2019-05-23T06:15:36.832Z,101576.65
2019-05-23T06:18:07.366Z,101578.20
2019-05-23T06:20:43.159Z,101582.00
2019-05-23T06:23:13.723Z,101580.56
2019-05-23T06:25:43.758Z,101579.93
2019-05-23T06:28:15.979Z,101581.23
2019-05-23T06:30:46.459Z,101584.39
2019-05-23T06:33:23.267Z,101581.39
2019-05-23T06:35:51.580Z,101574.53
2019-05-23T06:38:21.312Z,101580.37
2019-05-23T06:40:51.882Z,101574.55
2019-05-23T06:43:22.623Z,101578.06
2019-05-23T06:45:53.267Z,101575.34
2019-05-23T06:48:24.322Z,101575.06
2019-05-23T06:50:54.404Z,101583.06
2019-05-23T06:53:24.610Z,101581.46
2019-05-23T06:55:54.685Z,101585.30
2019-05-23T06:58:26.305Z,101587.01
2019-05-23T07:00:57.485Z,101592.09
2019-05-23T07:03:41.846Z,101583.05
2019-05-23T07:06:00.621Z,101584.83
2019-05-23T07:08:33.605Z,101583.74
2019-05-23T07:11:03.789Z,101583.87
2019-05-23T07:13:35.143Z,101588.09
2019-05-23T07:16:05.913Z,101592.19
2019-05-23T07:18:36.019Z,101590.44
2019-05-23T07:21:07.686Z,101588.72
2019-05-23T07:23:38.062Z,101593.80
2019-05-23T07:26:08.701Z,101585.39
2019-05-23T07:28:38.810Z,101584.98
2019-05-23T07:31:08.937Z,101583.02
2019-05-23T07:33:39.097Z,101586.52
2019-05-23T07:36:09.329Z,101584.79
2019-05-23T07:38:39.466Z,101584.20
2019-05-23T07:41:10.093Z,101580.62
2019-05-23T07:43:40.620Z,101587.62
2019-05-23T07:46:10.641Z,101582.86
2019-05-23T07:48:41.295Z,101585.28
2019-05-23T07:51:11.427Z,101578.45
2019-05-23T07:53:44.233Z,101589.95
2019-05-23T07:56:16.171Z,101584.64
2019-05-23T07:58:46.360Z,101584.03
2019-05-23T08:01:18.137Z,101582.36
2019-05-23T08:03:51.867Z,101588.70
2019-05-23T08:06:22.889Z,101584.42
2019-05-23T08:08:53.337Z,101580.94
2019-05-23T08:11:23.805Z,101584.59
2019-05-23T08:13:54.842Z,101580.25
2019-05-23T08:16:24.833Z,101579.98
2019-05-23T08:18:55.429Z,101583.03
2019-05-23T08:21:25.670Z,101581.98
2019-05-23T08:23:55.832Z,101580.34
2019-05-23T08:26:27.537Z,101581.45
2019-05-23T08:29:24.250Z,101578.95
2019-05-23T08:31:30.500Z,101581.42
2019-05-23T08:34:01.261Z,101579.05
2019-05-23T08:36:31.747Z,101580.75
2019-05-23T08:39:03.675Z,101581.51
2019-05-23T08:41:34.894Z,101581.25
2019-05-23T08:44:06.800Z,101581.94
2019-05-23T08:46:37.602Z,101580.32
2019-05-23T08:49:08.992Z,101587.34
2019-05-23T08:51:39.216Z,101585.45
2019-05-23T08:54:09.252Z,101589.94
2019-05-23T08:56:39.755Z,101584.39
2019-05-23T08:59:10.808Z,101579.60
2019-05-23T09:01:40.821Z,101577.89
2019-05-23T09:04:11.100Z,101580.18
2019-05-23T09:06:42.448Z,101578.96
2019-05-23T09:09:28.434Z,101579.75
2019-05-23T09:11:45.066Z,101574.62
2019-05-23T09:14:15.383Z,101571.52
2019-05-23T09:16:45.731Z,101567.70
2019-05-23T09:19:16.145Z,101571.84
2019-05-23T09:21:46.508Z,101568.31
2019-05-23T09:24:16.567Z,101563.38
2019-05-23T09:26:46.854Z,101561.95
2019-05-23T09:29:18.196Z,101559.23
2019-05-23T09:31:48.833Z,101555.80
2019-05-23T09:34:19.069Z,101555.97
2019-05-23T09:36:49.089Z,101555.80
2019-05-23T09:39:20.959Z,101555.15
2019-05-23T09:41:53.960Z,101551.08
2019-05-23T09:44:23.951Z,101555.69
2019-05-23T09:46:53.970Z,101547.44
2019-05-23T09:49:24.596Z,101549.23
2019-05-23T09:51:59.326Z,101548.16
2019-05-23T09:54:26.936Z,101551.17
2019-05-23T09:56:57.559Z,101548.88
2019-05-23T09:59:27.757Z,101544.72
2019-05-23T10:01:59.315Z,101542.45
2019-05-23T10:04:29.253Z,101536.61
2019-05-23T10:06:59.341Z,101533.39
2019-05-23T10:09:29.624Z,101532.90
2019-05-23T10:11:59.643Z,101535.57
2019-05-23T10:14:37.066Z,101533.34
2019-05-23T10:17:07.193Z,101538.55
2019-05-23T10:19:37.667Z,101535.13
2019-05-23T10:22:08.393Z,101529.19
2019-05-23T10:24:38.486Z,101532.70
2019-05-23T10:27:13.679Z,101533.85
2019-05-23T10:29:43.757Z,101529.81
2019-05-23T10:32:14.282Z,101531.69
2019-05-23T10:34:44.739Z,101526.30
2019-05-23T10:37:16.634Z,101521.30
2019-05-23T10:39:49.857Z,101521.91
2019-05-23T10:42:21.586Z,101515.88
2019-05-23T10:44:51.836Z,101512.42
2019-05-23T10:47:21.906Z,101509.84
2019-05-23T10:49:52.086Z,101514.80
2019-05-23T10:52:22.223Z,101504.55
2019-05-23T10:54:52.386Z,101499.53
2019-05-23T10:57:23.051Z,101503.48
2019-05-23T10:59:53.212Z,101505.68
2019-05-23T11:02:26.866Z,101503.76
2019-05-23T11:04:55.681Z,101501.23
2019-05-23T11:07:25.687Z,101501.27
2019-05-23T11:09:55.850Z,101501.27
2019-05-23T11:12:26.233Z,101496.04
2019-05-23T11:14:56.468Z,101496.48
2019-05-23T11:17:26.468Z,101493.64
2019-05-23T11:19:56.536Z,101495.16
2019-05-23T11:22:26.990Z,101487.36
2019-05-23T11:24:59.489Z,101486.94
2019-05-23T11:27:29.968Z,101488.08
2019-05-23T11:30:00.047Z,101483.28
2019-05-23T11:32:30.477Z,101477.22
2019-05-23T11:35:00.766Z,101476.26
2019-05-23T11:37:30.769Z,101475.23
2019-05-23T11:40:00.845Z,101469.81
2019-05-23T11:42:30.844Z,101465.62
2019-05-23T11:45:02.073Z,101470.02
2019-05-23T11:47:32.435Z,101470.74
2019-05-23T11:50:05.127Z,101467.15
2019-05-23T11:52:35.554Z,101462.76
2019-05-23T11:55:09.114Z,101464.63
2019-05-23T11:57:39.388Z,101458.09
2019-05-23T12:00:12.078Z,101452.55
2019-05-23T12:02:43.962Z,101456.83
2019-05-23T12:05:18.310Z,101447.56
2019-05-23T12:07:48.571Z,101447.04
2019-05-23T12:10:19.060Z,101442.12
2019-05-23T12:12:49.154Z,101439.53
2019-05-23T12:15:24.031Z,101436.81
2019-05-23T12:17:54.846Z,101434.63
2019-05-23T12:20:25.325Z,101434.42
2019-05-23T12:22:55.451Z,101431.98
2019-05-23T12:25:27.181Z,101434.47
2019-05-23T12:27:57.460Z,101432.86
2019-05-23T12:30:27.924Z,101431.83
2019-05-23T12:32:57.938Z,101420.43
2019-05-23T12:35:28.018Z,101417.36
2019-05-23T12:38:02.443Z,101424.41
2019-05-23T12:40:29.798Z,101425.73
2019-05-23T12:42:59.914Z,101422.73
2019-05-23T12:45:29.967Z,101420.66
2019-05-23T12:48:07.491Z,101421.20
2019-05-23T12:50:39.220Z,101416.25
2019-05-23T12:53:11.094Z,101412.78
2019-05-23T12:55:42.842Z,101409.92
2019-05-23T12:58:12.838Z,101396.72
2019-05-23T13:00:45.141Z,101400.51
2019-05-23T13:03:15.644Z,101394.30
2019-05-23T13:05:46.165Z,101392.97
2019-05-23T13:08:19.216Z,101391.08
2019-05-23T13:10:49.321Z,101390.39
2019-05-23T13:13:19.681Z,101387.55
2019-05-23T13:15:49.819Z,101388.59
2019-05-23T13:18:20.178Z,101379.34
2019-05-23T13:20:50.324Z,101381.81
2019-05-23T13:23:21.566Z,101379.12
2019-05-23T13:25:52.755Z,101377.25
2019-05-23T13:28:23.157Z,101370.80
2019-05-23T13:30:53.470Z,101377.75
2019-05-23T13:33:26.639Z,101373.04
2019-05-23T13:35:56.998Z,101369.73
2019-05-23T13:38:27.633Z,101368.42
2019-05-23T13:40:57.723Z,101372.98
2019-05-23T13:43:28.160Z,101367.58
2019-05-23T13:45:58.474Z,101362.77
2019-05-23T13:48:29.541Z,101366.25
2019-05-23T13:50:59.735Z,101356.08
2019-05-23T13:53:30.109Z,101357.28
2019-05-23T13:56:03.506Z,101355.98
2019-05-23T13:58:33.543Z,101345.61
2019-05-23T14:01:08.834Z,101354.54
2019-05-23T14:03:35.543Z,101345.48
2019-05-23T14:06:07.378Z,101347.46
2019-05-23T14:08:37.463Z,101347.18
2019-05-23T14:11:07.912Z,101344.55
2019-05-23T14:13:38.023Z,101348.97
2019-05-23T14:16:09.362Z,101342.99
2019-05-23T14:18:40.802Z,101341.80
2019-05-23T14:21:10.769Z,101335.84
2019-05-23T14:23:40.923Z,101334.64
2019-05-23T14:26:11.429Z,101334.44
2019-05-23T14:28:41.691Z,101335.98
2019-05-23T14:31:15.907Z,101334.44
2019-05-23T14:33:50.698Z,101328.64
2019-05-23T14:36:34.089Z,101334.31
2019-05-23T14:39:09.126Z,101334.66
2019-05-23T14:41:46.540Z,101331.24
2019-05-23T14:44:16.695Z,101330.69
2019-05-23T14:47:04.986Z,101329.39
2019-05-23T14:49:43.248Z,101329.98
2019-05-23T14:52:30.383Z,101323.39
2019-05-23T14:55:02.303Z,101320.44
2019-05-23T14:57:33.400Z,101317.81
2019-05-23T15:00:05.340Z,101318.42
2019-05-23T15:02:36.293Z,101308.42
2019-05-23T15:05:09.882Z,101304.72
2019-05-23T15:07:39.954Z,101307.80
2019-05-23T15:10:10.383Z,101315.79
2019-05-23T15:12:41.518Z,101310.36
2019-05-23T15:15:11.977Z,101304.42
2019-05-23T15:17:41.972Z,101303.82
2019-05-23T15:20:12.736Z,101305.56
2019-05-23T15:22:42.767Z,101300.60
2019-05-23T15:25:16.320Z,101298.55
2019-05-23T15:27:46.540Z,101306.56
2019-05-23T15:30:17.467Z,101303.77
2019-05-23T15:32:47.616Z,101302.63
2019-05-23T15:35:17.877Z,101296.89
2019-05-23T15:37:47.915Z,101287.25
2019-05-23T15:40:18.741Z,101288.17
2019-05-23T15:42:51.418Z,101282.41
2019-05-23T15:45:21.424Z,101279.09
2019-05-23T15:47:51.984Z,101280.63
2019-05-23T15:50:24.575Z,101279.98
2019-05-23T15:53:08.113Z,101280.56
2019-05-23T15:55:42.853Z,101277.77
2019-05-23T15:58:16.386Z,101276.25
2019-05-23T16:01:03.962Z,101274.30
2019-05-23T16:03:44.580Z,101270.98
2019-05-23T16:06:19.217Z,101266.02
2019-05-23T16:08:49.477Z,101266.27
2019-05-23T16:11:19.646Z,101269.28
2019-05-23T16:13:49.639Z,101266.88
2019-05-23T16:16:19.903Z,101259.53
2019-05-23T16:18:50.376Z,101261.52
2019-05-23T16:21:21.475Z,101263.61
2019-05-23T16:23:51.664Z,101256.97
2019-05-23T16:26:21.722Z,101257.89
2019-05-23T16:28:52.405Z,101259.63
2019-05-23T16:31:22.502Z,101253.34
2019-05-23T16:33:52.581Z,101258.29
2019-05-23T16:36:22.649Z,101251.07
2019-05-23T16:38:52.724Z,101257.34
2019-05-23T16:41:22.812Z,101245.92
2019-05-23T16:43:53.075Z,101242.98
2019-05-23T16:46:23.234Z,101244.85
2019-05-23T16:48:54.137Z,101251.36
2019-05-23T16:51:25.891Z,101241.03
2019-05-23T16:53:56.684Z,101242.55
2019-05-23T16:56:44.036Z,101247.69
2019-05-23T16:59:18.448Z,101245.19
2019-05-23T17:02:06.424Z,101241.83
2019-05-23T17:04:43.999Z,101234.45
2019-05-23T17:07:27.910Z,101235.98
2019-05-23T17:10:08.872Z,101240.43
2019-05-23T17:12:41.702Z,101236.78
2019-05-23T17:15:25.677Z,101234.30
2019-05-23T17:18:03.340Z,101236.80
2019-05-23T17:20:40.145Z,101227.22
2019-05-23T17:23:12.138Z,101239.16
2019-05-23T17:25:43.874Z,101235.95
2019-05-23T17:28:31.097Z,101233.69
2019-05-23T17:31:05.831Z,101223.25
2019-05-23T17:33:37.103Z,101223.85
2019-05-23T17:36:07.413Z,101229.72
2019-05-23T17:38:37.687Z,101223.95
2019-05-23T17:41:08.046Z,101228.49
2019-05-23T17:43:38.227Z,101223.75
2019-05-23T17:46:10.981Z,101218.45
2019-05-23T17:48:44.567Z,101225.03
2019-05-23T17:51:15.688Z,101222.22
2019-05-23T17:53:53.853Z,101223.13
2019-05-23T17:56:25.124Z,101218.98
2019-05-23T17:58:55.203Z,101220.87
2019-05-23T18:01:27.099Z,101215.36
2019-05-23T18:03:57.415Z,101220.08
2019-05-23T18:06:27.556Z,101220.28
2019-05-23T18:09:00.515Z,101221.13
2019-05-23T18:11:30.977Z,101217.95
2019-05-23T18:14:01.433Z,101212.80
2019-05-23T18:16:31.863Z,101208.58
2019-05-23T18:19:04.373Z,101212.70
2019-05-23T18:21:35.106Z,101208.18
2019-05-23T18:24:06.390Z,101211.08
2019-05-23T18:26:36.736Z,101209.91
2019-05-23T18:29:09.789Z,101212.25
2019-05-23T18:31:41.777Z,101208.09
2019-05-23T18:34:11.866Z,101209.32
2019-05-23T18:36:42.759Z,101210.83
2019-05-23T18:39:16.269Z,101207.16
2019-05-23T18:41:46.438Z,101209.31
2019-05-23T18:44:17.616Z,101210.75
2019-05-23T18:46:55.327Z,101207.13
2019-05-23T18:49:25.721Z,101206.45
2019-05-23T18:51:59.058Z,101203.84
2019-05-23T18:54:31.837Z,101209.51
2019-05-23T18:57:02.284Z,101207.75
2019-05-23T18:59:33.418Z,101214.89
2019-05-23T19:02:03.669Z,101215.71
2019-05-23T19:04:36.520Z,101209.70
2019-05-23T19:07:11.554Z,101213.81
2019-05-23T19:09:44.972Z,101217.73
2019-05-23T19:12:15.614Z,101210.88
2019-05-23T19:14:45.678Z,101211.92
2019-05-23T19:17:15.981Z,101216.75
2019-05-23T19:19:46.224Z,101218.11
2019-05-23T19:22:16.700Z,101215.63
2019-05-23T19:24:47.028Z,101216.52
2019-05-23T19:27:17.764Z,101219.81
2019-05-23T19:29:47.840Z,101220.86
2019-05-23T19:32:18.416Z,101220.92
2019-05-23T19:34:48.583Z,101221.50
2019-05-23T19:37:18.774Z,101222.75
2019-05-23T19:39:52.956Z,101223.34
2019-05-23T19:42:23.510Z,101220.73
2019-05-23T19:44:53.504Z,101219.11
2019-05-23T19:47:28.801Z,101223.67
2019-05-23T19:50:00.241Z,101220.39
2019-05-23T19:52:30.620Z,101210.34
2019-05-23T19:55:00.797Z,101213.87
2019-05-23T19:57:32.138Z,101213.09
2019-05-23T20:00:06.271Z,101208.23
2019-05-23T20:02:45.425Z,101212.20
2019-05-23T20:05:29.227Z,101208.59
2019-05-23T20:07:59.945Z,101209.80
2019-05-23T20:10:31.172Z,101209.60
2019-05-23T20:13:01.648Z,101207.19
2019-05-23T20:15:34.482Z,101201.58
2019-05-23T20:18:06.744Z,101201.20
2019-05-23T20:20:39.119Z,101204.77
2019-05-23T20:23:11.161Z,101208.84
2019-05-23T20:25:41.663Z,101215.19
2019-05-23T20:28:13.303Z,101210.90
2019-05-23T20:30:47.576Z,101212.89
2019-05-23T20:33:17.970Z,101213.90
2019-05-23T20:35:48.423Z,101213.63
2019-05-23T20:38:20.111Z,101207.64
2019-05-23T20:40:53.282Z,101217.18
2019-05-23T20:43:23.521Z,101208.70
2019-05-23T20:45:53.718Z,101203.13
2019-05-23T20:48:27.626Z,101205.48
2019-05-23T20:50:58.040Z,101203.89
2019-05-23T20:53:28.203Z,101205.00
2019-05-23T20:55:58.283Z,101202.52
2019-05-23T20:58:28.372Z,101200.16
2019-05-23T21:01:00.190Z,101189.16
2019-05-23T21:03:35.323Z,101196.11
2019-05-23T21:06:05.988Z,101195.09
2019-05-23T21:08:39.752Z,101190.08
2019-05-23T21:11:10.274Z,101192.11
2019-05-23T21:13:40.469Z,101188.02
2019-05-23T21:16:10.511Z,101184.66
2019-05-23T21:18:40.735Z,101191.15
2019-05-23T21:21:11.218Z,101192.66
2019-05-23T21:23:41.316Z,101196.67
2019-05-23T21:26:13.812Z,101194.88
2019-05-23T21:28:46.831Z,101189.30
2019-05-23T21:31:18.472Z,101195.87
2019-05-23T21:33:48.773Z,101194.94
2019-05-23T21:36:18.865Z,101192.44
2019-05-23T21:38:49.054Z,101190.84
2019-05-23T21:41:19.220Z,101189.14
2019-05-23T21:43:50.872Z,101190.58
2019-05-23T21:46:20.862Z,101190.84
2019-05-23T21:48:51.238Z,101184.14
2019-05-23T21:51:21.370Z,101183.59
2019-05-23T21:53:51.461Z,101183.44
2019-05-23T21:56:21.582Z,101183.63
2019-05-23T21:58:51.765Z,101182.89
2019-05-23T22:01:25.345Z,101178.80
2019-05-23T22:03:57.286Z,101179.30
2019-05-23T22:06:43.979Z,101169.43
2019-05-23T22:09:14.282Z,101171.80
2019-05-23T22:11:44.718Z,101173.44
2019-05-23T22:14:15.807Z,101173.89
2019-05-23T22:16:45.910Z,101172.99
2019-05-23T22:19:17.813Z,101171.16
2019-05-23T22:21:48.441Z,101165.49
2019-05-23T22:24:19.764Z,101160.23
2019-05-23T22:26:49.895Z,101164.69
2019-05-23T22:29:20.048Z,101164.18
2019-05-23T22:31:50.176Z,101159.34
2019-05-23T22:34:22.070Z,101154.09
2019-05-23T22:36:53.175Z,101154.09
2019-05-23T22:39:24.513Z,101150.20
2019-05-23T22:41:54.667Z,101148.54
2019-05-23T22:44:24.677Z,101147.87
2019-05-23T22:46:54.847Z,101142.23
2019-05-23T22:49:24.837Z,101141.08
2019-05-23T22:51:54.913Z,101136.04
2019-05-23T22:54:24.971Z,101132.67
2019-05-23T22:56:55.062Z,101135.13
2019-05-23T22:59:25.092Z,101131.70
2019-05-23T23:01:55.223Z,101134.03
2019-05-23T23:04:25.696Z,101131.59
2019-05-23T23:06:55.696Z,101125.60
2019-05-23T23:09:28.783Z,101120.54
2019-05-23T23:11:59.416Z,101131.31
2019-05-23T23:14:29.778Z,101124.94
2019-05-23T23:17:00.021Z,101121.63
2019-05-23T23:19:30.117Z,101123.20
2019-05-23T23:22:00.196Z,101120.70
2019-05-23T23:24:30.218Z,101127.32
2019-05-23T23:27:00.221Z,101122.09
2019-05-23T23:29:30.297Z,101127.28
2019-05-23T23:32:04.061Z,101123.72
2019-05-23T23:34:34.356Z,101126.19
2019-05-23T23:37:04.450Z,101126.77
2019-05-23T23:39:34.600Z,101125.70
2019-05-23T23:42:06.021Z,101124.02
2019-05-23T23:44:35.340Z,101123.94
2019-05-23T23:47:24.150Z,101126.64
2019-05-23T23:50:12.012Z,101122.82
2019-05-23T23:53:03.031Z,101118.55
2019-05-23T23:55:50.852Z,101111.19
2019-05-23T23:58:20.541Z,101108.93
